Time;durP1;ratioP1;P1;durP2;ratioP2;P2;SDS_P1;SDS_P2;PMS_P1;PMS_P2;Temp;Humidity;BMP_temperature;BMP_pressure;BME280_temperature;BME280_humidity;BME280_pressure;Samples;Min_cycle;Max_cycle;Signal;HPM_P1;HPM_P2
2022/06/21 00:01:13;;;;;;;14.43;8.75;;;;;;;;;;5323338;27;20094;-82
2022/06/21 00:03:46;;;;;;;14.40;8.55;;;;;;;;;;5302998;28;20028;-82
2022/06/21 00:06:22;;;;;;;15.80;8.40;;;;;;;;;;5300698;28;20341;-82
2022/06/21 00:08:53;;;;;;;16.77;9.93;;;;;;;;;;5312152;27;20404;-82
2022/06/21 00:11:27;;;;;;;16.03;8.97;;;;;;;;;;5291032;28;20032;-82
2022/06/21 00:13:58;;;;;;;18.17;8.90;;;;;;;;;;5312601;27;20626;-82
2022/06/21 00:16:30;;;;;;;16.92;8.32;;;;;;;;;;5293836;28;20032;-82
2022/06/21 00:19:02;;;;;;;12.70;8.23;;;;;;;;;;5315996;27;20078;-81
2022/06/21 00:21:35;;;;;;;15.98;8.88;;;;;;;;;;5320528;27;20119;-82
2022/06/21 00:24:06;;;;;;;13.38;8.20;;;;;;;;;;5289038;28;20550;-82
2022/06/21 00:26:37;;;;;;;18.60;8.63;;;;;;;;;;5327040;27;20035;-82
2022/06/21 00:29:09;;;;;;;13.27;8.57;;;;;;;;;;5297587;28;20028;-80
2022/06/21 00:31:43;;;;;;;13.93;9.30;;;;;;;;;;5317502;27;20271;-81
2022/06/21 00:34:19;;;;;;;14.77;8.40;;;;;;;;;;5319083;27;20030;-82
2022/06/21 00:36:51;;;;;;;13.40;10.05;;;;;;;;;;5316450;27;20050;-82
2022/06/21 00:39:22;;;;;;;13.93;10.20;;;;;;;;;;5298270;28;20028;-82
2022/06/21 00:41:54;;;;;;;11.97;9.40;;;;;;;;;;5290613;28;20042;-81
2022/06/21 00:44:35;;;;;;;13.20;8.80;;;;;;;;;;5298289;28;20333;-82
2022/06/21 00:47:27;;;;;;;11.57;8.98;;;;;;;;;;5314334;27;20493;-81
2022/06/21 00:50:00;;;;;;;16.08;8.63;;;;;;;;;;5301081;27;20044;-81
2022/06/21 00:52:40;;;;;;;25.90;10.05;;;;;;;;;;5316939;27;20033;-81
2022/06/21 00:55:16;;;;;;;14.73;10.77;;;;;;;;;;5315436;27;20108;-81
2022/06/21 00:57:54;;;;;;;13.77;10.50;;;;;;;;;;5315346;28;20097;-81
2022/06/21 01:00:26;;;;;;;13.40;10.38;;;;;;;;;;5299492;27;20016;-81
2022/06/21 01:02:59;;;;;;;18.23;10.57;;;;;;;;;;5296033;28;20043;-82
2022/06/21 01:05:31;;;;;;;16.17;10.15;;;;;;;;;;5316939;28;20123;-81
2022/06/21 01:08:02;;;;;;;17.02;9.60;;;;;;;;;;5310801;27;20040;-81
2022/06/21 01:10:34;;;;;;;16.90;11.57;;;;;;;;;;5317185;27;20373;-81
2022/06/21 01:13:10;;;;;;;16.45;10.68;;;;;;;;;;5313358;27;20043;-81
2022/06/21 01:15:43;;;;;;;18.00;11.77;;;;;;;;;;5305590;27;20066;-81
2022/06/21 01:18:17;;;;;;;14.18;10.20;;;;;;;;;;5293954;27;20028;-81
2022/06/21 01:20:50;;;;;;;18.15;12.60;;;;;;;;;;5316106;27;20043;-81
2022/06/21 01:23:32;;;;;;;17.35;10.85;;;;;;;;;;5289731;28;20032;-81
2022/06/21 01:26:12;;;;;;;15.45;10.05;;;;;;;;;;5311873;27;20025;-81
2022/06/21 01:28:44;;;;;;;15.85;10.68;;;;;;;;;;5301973;27;20043;-80
2022/06/21 01:31:15;;;;;;;19.13;11.40;;;;;;;;;;5309957;27;20027;-82
2022/06/21 01:33:47;;;;;;;16.25;10.52;;;;;;;;;;5313805;27;20064;-81
2022/06/21 01:36:20;;;;;;;26.35;11.55;;;;;;;;;;5295012;28;20047;-81
2022/06/21 01:38:54;;;;;;;21.95;12.05;;;;;;;;;;5327477;27;20036;-82
2022/06/21 01:41:39;;;;;;;15.88;10.20;;;;;;;;;;5312279;27;20029;-81
2022/06/21 01:44:12;;;;;;;15.27;11.65;;;;;;;;;;5310948;27;20029;-82
2022/06/21 01:46:47;;;;;;;15.57;11.55;;;;;;;;;;5293473;28;20489;-82
2022/06/21 01:49:21;;;;;;;20.38;11.43;;;;;;;;;;5313505;27;20454;-82
2022/06/21 01:51:55;;;;;;;19.27;11.73;;;;;;;;;;5318621;27;20197;-82
2022/06/21 01:54:30;;;;;;;23.83;11.32;;;;;;;;;;5312644;27;20024;-81
2022/06/21 01:57:01;;;;;;;17.70;11.50;;;;;;;;;;5311974;27;20035;-82
2022/06/21 01:59:36;;;;;;;21.67;11.57;;;;;;;;;;5311588;27;20024;-82
2022/06/21 02:02:09;;;;;;;20.42;13.05;;;;;;;;;;5318236;27;20166;-82
2022/06/21 02:04:52;;;;;;;21.17;12.20;;;;;;;;;;5330339;27;20381;-82
2022/06/21 02:07:34;;;;;;;15.80;11.52;;;;;;;;;;5296701;27;20096;-82
2022/06/21 02:10:35;;;;;;;25.67;12.80;;;;;;;;;;5312843;27;20034;-82
2022/06/21 02:13:08;;;;;;;19.13;12.40;;;;;;;;;;5284828;28;20105;-82
2022/06/21 02:15:44;;;;;;;17.98;11.98;;;;;;;;;;5321034;28;20032;-82
2022/06/21 02:18:17;;;;;;;19.00;13.75;;;;;;;;;;5328134;27;20106;-82
2022/06/21 02:20:48;;;;;;;30.02;15.32;;;;;;;;;;5306859;27;20027;-82
2022/06/21 02:23:22;;;;;;;31.95;16.15;;;;;;;;;;5286938;28;20028;-82
2022/06/21 02:25:54;;;;;;;23.83;13.40;;;;;;;;;;5302932;27;20481;-82
2022/06/21 02:28:28;;;;;;;14.50;11.93;;;;;;;;;;5302055;28;20043;-82
2022/06/21 02:30:59;;;;;;;21.98;14.15;;;;;;;;;;5319493;28;20032;-81
2022/06/21 02:33:33;;;;;;;25.35;15.45;;;;;;;;;;5295671;28;20031;-82
2022/06/21 02:36:07;;;;;;;24.73;14.43;;;;;;;;;;5289492;27;20072;-82
2022/06/21 02:38:40;;;;;;;16.38;12.48;;;;;;;;;;5294250;28;20021;-82
2022/06/21 02:41:16;;;;;;;24.85;16.73;;;;;;;;;;5286849;27;20031;-82
2022/06/21 02:43:50;;;;;;;20.67;17.15;;;;;;;;;;5293699;28;20067;-82
2022/06/21 02:46:26;;;;;;;33.33;19.40;;;;;;;;;;5297739;27;20396;-82
2022/06/21 02:49:06;;;;;;;25.63;18.17;;;;;;;;;;5290627;28;20052;-82
2022/06/21 02:51:41;;;;;;;19.63;14.18;;;;;;;;;;5289442;27;20420;-82
2022/06/21 02:54:18;;;;;;;22.08;17.35;;;;;;;;;;5298331;28;20036;-82
2022/06/21 02:56:52;;;;;;;15.40;13.73;;;;;;;;;;5289702;27;20035;-82
2022/06/21 02:59:23;;;;;;;13.20;10.88;;;;;;;;;;5310268;27;20056;-82
2022/06/21 03:01:57;;;;;;;22.65;14.32;;;;;;;;;;5293979;28;20115;-82
2022/06/21 03:04:37;;;;;;;18.05;12.90;;;;;;;;;;5317088;27;20076;-82
2022/06/21 03:07:12;;;;;;;20.23;14.48;;;;;;;;;;5289735;28;20067;-80
2022/06/21 03:09:43;;;;;;;17.20;12.57;;;;;;;;;;5313468;28;20044;-80
2022/06/21 03:12:16;;;;;;;17.33;12.05;;;;;;;;;;5312855;27;20051;-82
2022/06/21 03:14:49;;;;;;;21.45;13.70;;;;;;;;;;5312402;28;20716;-81
2022/06/21 03:17:23;;;;;;;18.60;12.90;;;;;;;;;;5287383;28;20098;-81
2022/06/21 03:19:54;;;;;;;17.58;12.88;;;;;;;;;;5306073;27;20087;-82
2022/06/21 03:22:26;;;;;;;19.70;14.13;;;;;;;;;;5310967;27;20037;-81
2022/06/21 03:24:58;;;;;;;21.55;14.90;;;;;;;;;;5293350;28;20086;-82
2022/06/21 03:27:38;;;;;;;24.17;17.60;;;;;;;;;;5286568;28;20063;-81
2022/06/21 03:30:09;;;;;;;26.70;15.38;;;;;;;;;;5295821;28;20085;-81
2022/06/21 03:32:40;;;;;;;16.40;13.40;;;;;;;;;;5325886;27;20028;-81
2022/06/21 03:35:14;;;;;;;19.67;15.52;;;;;;;;;;5294808;27;20461;-81
2022/06/21 03:37:46;;;;;;;23.05;16.30;;;;;;;;;;5299369;28;20032;-81
2022/06/21 03:43:14;;;;;;;19.35;14.35;;;;;;;;;;5317714;27;20630;-81
2022/06/21 03:45:45;;;;;;;;;;;;;;;;;;5291894;28;20082;-81
2022/06/21 03:48:20;;;;;;;24.33;16.43;;;;;;;;;;5323255;27;19916;-81
2022/06/21 03:50:54;;;;;;;32.20;19.77;;;;;;;;;;5289783;28;20285;-81
2022/06/21 03:53:30;;;;;;;28.65;19.88;;;;;;;;;;5315686;27;20071;-81
2022/06/21 03:56:05;;;;;;;30.08;21.88;;;;;;;;;;5319892;28;20461;-81
2022/06/21 03:58:39;;;;;;;30.05;21.90;;;;;;;;;;5291447;28;20020;-81
2022/06/21 04:01:26;;;;;;;29.13;19.42;;;;;;;;;;5314422;28;20040;-81
2022/06/21 04:04:03;;;;;;;34.33;23.20;;;;;;;;;;5314566;27;20101;-81
2022/06/21 04:07:00;;;;;;;32.63;22.77;;;;;;;;;;5315732;27;20154;-81
2022/06/21 04:09:42;;;;;;;32.03;23.63;;;;;;;;;;5291958;27;20405;-81
2022/06/21 04:12:32;;;;;;;25.98;19.73;;;;;;;;;;5289643;28;20040;-81
2022/06/21 04:15:17;;;;;;;32.22;23.73;;;;;;;;;;5324503;27;20036;-81
2022/06/21 04:17:48;;;;;;;31.80;21.75;;;;;;;;;;5290070;27;20076;-81
2022/06/21 04:20:22;;;;;;;31.73;21.02;;;;;;;;;;5316873;28;20062;-81
2022/06/21 04:22:58;;;;;;;23.77;18.05;;;;;;;;;;5328850;27;20040;-81
2022/06/21 04:25:30;;;;;;;;;;;;;;;;;;5319312;27;20108;-81
2022/06/21 04:28:04;;;;;;;27.58;20.35;;;;;;;;;;5307753;27;19987;-81
2022/06/21 04:30:41;;;;;;;30.92;19.95;;;;;;;;;;5328702;27;20079;-81
2022/06/21 04:33:21;;;;;;;31.25;21.67;;;;;;;;;;5321580;27;20518;-81
2022/06/21 04:36:02;;;;;;;30.35;19.75;;;;;;;;;;5288858;28;20024;-81
2022/06/21 04:38:43;;;;;;;30.38;19.38;;;;;;;;;;5290365;27;20028;-82
2022/06/21 04:41:21;;;;;;;27.30;18.92;;;;;;;;;;5326061;27;20138;-82
2022/06/21 04:44:07;;;;;;;22.88;18.92;;;;;;;;;;5315333;27;20071;-82
2022/06/21 04:46:40;;;;;;;;;;;;;;;;;;5310968;27;20125;-82
2022/06/21 04:49:11;;;;;;;23.13;16.75;;;;;;;;;;5295745;28;19969;-82
2022/06/21 04:51:51;;;;;;;25.40;17.13;;;;;;;;;;5327810;27;20045;-82
2022/06/21 04:54:24;;;;;;;23.33;16.10;;;;;;;;;;5302296;28;20032;-82
2022/06/21 04:56:58;;;;;;;24.98;15.00;;;;;;;;;;5291864;27;20453;-82
2022/06/21 04:59:33;;;;;;;20.75;14.68;;;;;;;;;;5298237;28;20061;-81
2022/06/21 05:02:05;;;;;;;17.15;14.40;;;;;;;;;;5315592;28;20033;-82
2022/06/21 05:04:37;;;;;;;15.13;13.40;;;;;;;;;;5317967;27;20024;-82
2022/06/21 05:07:14;;;;;;;17.23;12.65;;;;;;;;;;5295997;28;20036;-82
2022/06/21 05:09:46;;;;;;;14.63;12.70;;;;;;;;;;5314145;27;20028;-82
2022/06/21 05:12:26;;;;;;;19.17;13.27;;;;;;;;;;5289653;28;20558;-82
2022/06/21 05:15:06;;;;;;;15.48;11.85;;;;;;;;;;5293270;28;20064;-82
2022/06/21 05:17:39;;;;;;;12.65;11.32;;;;;;;;;;5290871;28;20043;-82
2022/06/21 05:20:14;;;;;;;17.15;10.75;;;;;;;;;;5288673;28;20028;-82
2022/06/21 05:22:50;;;;;;;16.52;9.68;;;;;;;;;;5316185;28;20028;-82
2022/06/21 05:25:29;;;;;;;18.33;9.10;;;;;;;;;;5292539;28;20048;-82
2022/06/21 05:28:21;;;;;;;15.43;8.40;;;;;;;;;;5294695;27;20528;-82
2022/06/21 05:31:03;;;;;;;15.23;8.10;;;;;;;;;;5308795;27;20371;-83
2022/06/21 05:33:43;;;;;;;15.85;7.03;;;;;;;;;;5299305;28;20035;-82
2022/06/21 05:36:21;;;;;;;9.82;5.82;;;;;;;;;;5314483;27;20036;-82
2022/06/21 05:39:11;;;;;;;;;;;;;;;;;;;;;
2022/06/21 05:41:44;;;;;;;13.65;5.60;;;;;;;;;;5310728;27;41063;-81
2022/06/21 05:44:40;;;;;;;9.68;5.25;;;;;;;;;;5314645;27;20094;-81
2022/06/21 05:47:34;;;;;;;10.48;4.95;;;;;;;;;;5287542;27;20176;-81
2022/06/21 05:50:16;;;;;;;7.93;4.07;;;;;;;;;;5264739;28;20509;-84
2022/06/21 05:52:49;;;;;;;7.28;4.47;;;;;;;;;;5279700;28;20491;-82
2022/06/21 05:55:28;;;;;;;7.93;4.30;;;;;;;;;;5310925;27;20017;-82
2022/06/21 05:58:35;;;;;;;12.07;4.88;;;;;;;;;;5282010;28;20086;-81
2022/06/21 06:01:12;;;;;;;9.65;3.47;;;;;;;;;;5233920;28;20044;-82
2022/06/21 06:03:56;;;;;;;5.65;3.55;;;;;;;;;;5303825;28;20074;-81
2022/06/21 06:06:34;;;;;;;6.15;3.25;;;;;;;;;;5296283;28;20028;-83
2022/06/21 06:09:08;;;;;;;7.43;3.80;;;;;;;;;;5264156;28;20036;-82
2022/06/21 06:11:57;;;;;;;8.93;3.70;;;;;;;;;;5298738;28;20029;-80
2022/06/21 06:14:55;;;;;;;7.95;3.40;;;;;;;;;;5285042;28;20361;-82
2022/06/21 06:17:47;;;;;;;9.77;3.90;;;;;;;;;;5275567;28;20033;-82
2022/06/21 06:20:41;;;;;;;6.57;3.65;;;;;;;;;;5284345;28;20493;-82
2022/06/21 06:23:20;;;;;;;12.98;3.53;;;;;;;;;;5282719;28;20017;-82
2022/06/21 06:25:54;;;;;;;9.35;3.13;;;;;;;;;;5280721;28;20139;-82
2022/06/21 06:28:39;;;;;;;8.68;2.70;;;;;;;;;;5278559;28;20039;-82
2022/06/21 06:31:19;;;;;;;6.05;2.80;;;;;;;;;;5294965;28;20041;-82
2022/06/21 06:33:58;;;;;;;9.15;3.13;;;;;;;;;;5293178;28;20116;-82
2022/06/21 06:36:41;;;;;;;7.93;2.45;;;;;;;;;;5264405;28;20029;-82
2022/06/21 06:39:22;;;;;;;6.13;2.45;;;;;;;;;;5284078;28;20036;-82
2022/06/21 06:42:08;;;;;;;5.95;2.03;;;;;;;;;;5313564;28;20109;-82
2022/06/21 06:44:46;;;;;;;6.40;2.25;;;;;;;;;;5286808;28;20493;-82
2022/06/21 06:47:29;;;;;;;7.32;2.30;;;;;;;;;;5266448;28;20043;-82
2022/06/21 06:50:08;;;;;;;4.70;1.90;;;;;;;;;;5308707;28;20067;-82
2022/06/21 06:52:43;;;;;;;4.95;2.10;;;;;;;;;;5302359;28;20053;-82
2022/06/21 06:55:14;;;;;;;6.35;2.30;;;;;;;;;;5304335;28;20024;-82
2022/06/21 06:57:49;;;;;;;6.32;2.10;;;;;;;;;;5319971;28;20395;-82
2022/06/21 07:00:29;;;;;;;6.95;2.28;;;;;;;;;;5292316;28;20043;-82
2022/06/21 07:03:03;;;;;;;5.97;2.58;;;;;;;;;;5307089;28;20036;-82
2022/06/21 07:05:37;;;;;;;6.93;2.28;;;;;;;;;;5304595;28;20028;-82
2022/06/21 07:08:16;;;;;;;9.55;2.95;;;;;;;;;;5301812;28;20123;-82
2022/06/21 07:10:48;;;;;;;7.18;2.40;;;;;;;;;;5298407;28;20047;-82
2022/06/21 07:13:19;;;;;;;7.05;2.58;;;;;;;;;;5296449;28;20315;-80
2022/06/21 07:15:51;;;;;;;8.05;2.78;;;;;;;;;;5277504;28;20048;-83
2022/06/21 07:18:34;;;;;;;6.45;2.17;;;;;;;;;;5272894;28;20148;-83
2022/06/21 07:21:06;;;;;;;8.05;2.50;;;;;;;;;;5291371;28;20028;-83
2022/06/21 07:23:37;;;;;;;6.55;2.22;;;;;;;;;;5275277;28;20081;-83
2022/06/21 07:26:14;;;;;;;5.68;2.30;;;;;;;;;;5292462;28;20115;-82
2022/06/21 07:28:49;;;;;;;8.57;2.55;;;;;;;;;;5266129;28;20098;-83
2022/06/21 07:31:31;;;;;;;8.07;2.70;;;;;;;;;;5293167;28;20037;-80
2022/06/21 07:34:08;;;;;;;8.75;2.72;;;;;;;;;;5282327;28;20783;-82
2022/06/21 07:36:47;;;;;;;7.18;2.65;;;;;;;;;;5281098;28;20048;-81
2022/06/21 07:39:22;;;;;;;4.80;2.40;;;;;;;;;;5297843;28;20024;-81
2022/06/21 07:41:59;;;;;;;8.80;2.95;;;;;;;;;;5297245;28;20041;-81
2022/06/21 07:44:52;;;;;;;7.55;2.85;;;;;;;;;;5297105;28;20476;-82
2022/06/21 07:47:34;;;;;;;10.25;2.78;;;;;;;;;;5285598;28;20033;-83
2022/06/21 07:50:19;;;;;;;12.25;3.10;;;;;;;;;;5287002;28;20040;-81
2022/06/21 07:52:53;;;;;;;5.97;2.60;;;;;;;;;;5302856;27;20036;-81
2022/06/21 07:55:51;;;;;;;8.20;2.53;;;;;;;;;;5306143;28;20161;-81
2022/06/21 07:58:30;;;;;;;6.93;2.38;;;;;;;;;;5303261;28;20430;-81
2022/06/21 08:06:54;;;;;;;7.43;3.08;;;;;;;;;;5305823;27;20526;-81
2022/06/21 08:09:25;;;;;;;5.97;2.50;;;;;;;;;;5284431;28;20066;-81
2022/06/21 08:12:00;;;;;;;4.73;2.00;;;;;;;;;;5309147;28;20133;-81
2022/06/21 08:14:32;;;;;;;4.20;1.92;;;;;;;;;;5339546;27;20278;-81
2022/06/21 08:17:30;;;;;;;4.55;2.40;;;;;;;;;;5339342;27;20043;-81
2022/06/21 08:20:19;;;;;;;7.43;2.60;;;;;;;;;;5323961;27;20094;-81
2022/06/21 08:23:09;;;;;;;7.40;2.72;;;;;;;;;;5318721;28;20028;-81
2022/06/21 08:25:53;;;;;;;9.27;3.03;;;;;;;;;;5337402;27;20688;-81
2022/06/21 08:28:37;;;;;;;7.65;2.53;;;;;;;;;;5342165;27;20035;-80
2022/06/21 08:31:19;;;;;;;9.32;2.30;;;;;;;;;;5341401;27;20263;-82
2022/06/21 08:33:55;;;;;;;6.78;1.95;;;;;;;;;;5326255;28;20020;-81
2022/06/21 08:36:53;;;;;;;5.90;1.63;;;;;;;;;;5307866;28;20456;-81
2022/06/21 08:39:29;;;;;;;4.82;2.00;;;;;;;;;;5295027;28;20500;-81
2022/06/21 08:42:19;;;;;;;7.68;2.28;;;;;;;;;;5327005;27;20020;-80
2022/06/21 08:45:40;;;;;;;6.10;2.00;;;;;;;;;;5299311;27;20525;-81
2022/06/21 08:47:53;;;;;;;5.22;2.63;;;;;;;;;;5331647;27;20054;-81
2022/06/21 08:50:43;;;;;;;7.78;2.60;;;;;;;;;;5328742;27;20425;-81
2022/06/21 08:53:33;;;;;;;5.85;2.33;;;;;;;;;;5342435;27;20036;-81
2022/06/21 08:56:10;;;;;;;6.50;2.53;;;;;;;;;;5324742;28;20038;-81
2022/06/21 08:58:56;;;;;;;11.70;2.92;;;;;;;;;;5321113;28;20035;-81
2022/06/21 09:01:46;;;;;;;6.93;2.60;;;;;;;;;;5336128;27;20126;-81
2022/06/21 09:04:24;;;;;;;5.00;2.45;;;;;;;;;;5326864;28;20028;-81
2022/06/21 09:07:04;;;;;;;9.07;2.60;;;;;;;;;;5326035;28;20056;-81
2022/06/21 09:09:46;;;;;;;3.92;2.10;;;;;;;;;;5338572;27;20032;-81
2022/06/21 09:12:17;;;;;;;7.05;2.13;;;;;;;;;;5314001;27;20089;-81
2022/06/21 09:15:14;;;;;;;5.37;2.37;;;;;;;;;;5345627;27;20020;-81
2022/06/21 09:17:46;;;;;;;6.90;2.35;;;;;;;;;;5331994;27;20473;-81
2022/06/21 09:20:20;;;;;;;6.10;2.80;;;;;;;;;;5287703;28;20094;-81
2022/06/21 09:23:10;;;;;;;5.95;2.47;;;;;;;;;;5304567;28;20035;-81
2022/06/21 09:25:41;;;;;;;6.32;2.60;;;;;;;;;;5306656;27;20035;-81
2022/06/21 09:28:24;;;;;;;5.80;2.70;;;;;;;;;;5298138;27;20035;-81
2022/06/21 09:31:01;;;;;;;6.53;2.22;;;;;;;;;;5324804;28;20020;-81
2022/06/21 09:33:55;;;;;;;4.75;2.58;;;;;;;;;;5325956;28;20150;-81
2022/06/21 09:36:41;;;;;;;6.85;2.58;;;;;;;;;;5306890;28;20023;-81
2022/06/21 09:39:23;;;;;;;7.85;2.47;;;;;;;;;;5299879;28;20058;-81
2022/06/21 09:42:00;;;;;;;6.15;2.63;;;;;;;;;;5319867;28;20108;-81
2022/06/21 09:44:50;;;;;;;6.45;1.85;;;;;;;;;;5286209;28;20052;-81
2022/06/21 09:47:41;;;;;;;6.38;2.13;;;;;;;;;;5304560;28;20028;-81
2022/06/21 09:50:17;;;;;;;5.30;2.03;;;;;;;;;;5303027;28;20445;-81
2022/06/21 09:53:06;;;;;;;5.95;2.17;;;;;;;;;;5325334;28;20333;-81
2022/06/21 09:55:43;;;;;;;7.25;2.10;;;;;;;;;;5325688;28;20043;-81
2022/06/21 09:58:14;;;;;;;7.32;2.40;;;;;;;;;;5328858;27;20028;-81
2022/06/21 10:00:48;;;;;;;7.13;1.90;;;;;;;;;;5340426;27;20404;-81
2022/06/21 10:03:38;;;;;;;7.85;2.90;;;;;;;;;;5325660;28;20044;-82
2022/06/21 10:06:25;;;;;;;6.20;2.50;;;;;;;;;;5319669;27;20381;-81
2022/06/21 10:09:14;;;;;;;7.40;2.50;;;;;;;;;;5303233;27;20036;-81
2022/06/21 10:11:52;;;;;;;5.70;2.70;;;;;;;;;;5284964;28;20046;-81
2022/06/21 10:14:41;;;;;;;7.88;2.30;;;;;;;;;;5304094;28;20025;-81
2022/06/21 10:17:15;;;;;;;4.53;2.45;;;;;;;;;;5303784;28;20027;-80
2022/06/21 10:19:52;;;;;;;4.18;2.55;;;;;;;;;;5316434;27;20028;-81
2022/06/21 10:22:41;;;;;;;4.93;2.45;;;;;;;;;;5321623;27;20082;-80
2022/06/21 10:25:32;;;;;;;5.60;2.30;;;;;;;;;;5325269;28;20066;-81
2022/06/21 10:28:12;;;;;;;11.35;2.90;;;;;;;;;;5325029;28;20024;-80
2022/06/21 10:30:49;;;;;;;6.93;2.58;;;;;;;;;;5324221;28;20552;-80
2022/06/21 10:33:39;;;;;;;9.57;3.00;;;;;;;;;;5324904;27;20107;-81
2022/06/21 10:36:29;;;;;;;4.30;2.08;;;;;;;;;;5324727;28;20020;-80
2022/06/21 10:39:06;;;;;;;7.50;3.08;;;;;;;;;;5324240;28;20028;-81
2022/06/21 10:44:45;;;;;;;6.50;2.78;;;;;;;;;;5314073;27;20388;-81
2022/06/21 10:47:23;;;;;;;6.25;2.78;;;;;;;;;;5324059;27;20032;-81
2022/06/21 10:50:00;;;;;;;4.03;2.63;;;;;;;;;;5324776;28;20072;-81
2022/06/21 10:52:47;;;;;;;7.05;2.83;;;;;;;;;;5316167;28;20470;-80
2022/06/21 10:55:28;;;;;;;7.18;2.53;;;;;;;;;;5334972;27;20047;-81
2022/06/21 10:57:59;;;;;;;5.63;2.60;;;;;;;;;;5337532;27;20028;-80
2022/06/21 11:03:38;;;;;;;6.95;2.67;;;;;;;;;;5345378;27;20039;-81
2022/06/21 11:06:17;;;;;;;9.25;2.90;;;;;;;;;;5317922;27;20059;-80
2022/06/21 11:08:48;;;;;;;5.50;3.00;;;;;;;;;;5334484;27;20038;-81
2022/06/21 11:11:38;;;;;;;5.60;2.60;;;;;;;;;;5350963;27;20016;-81
2022/06/21 11:14:15;;;;;;;6.25;2.90;;;;;;;;;;5341890;27;20452;-81
2022/06/21 11:17:05;;;;;;;6.88;3.00;;;;;;;;;;5315989;27;20029;-81
2022/06/21 11:19:55;;;;;;;7.03;3.80;;;;;;;;;;5316240;27;20036;-81
2022/06/21 11:22:32;;;;;;;5.88;2.80;;;;;;;;;;5303735;28;20017;-81
2022/06/21 11:25:16;;;;;;;8.80;3.50;;;;;;;;;;5305966;28;20055;-81
2022/06/21 11:28:12;;;;;;;5.63;2.80;;;;;;;;;;5339161;27;20035;-81
2022/06/21 11:31:01;;;;;;;4.78;2.90;;;;;;;;;;5298835;28;20028;-81
2022/06/21 11:33:54;;;;;;;6.13;3.35;;;;;;;;;;5324291;28;20078;-81
2022/06/21 11:36:44;;;;;;;5.93;2.72;;;;;;;;;;5339419;27;20111;-81
2022/06/21 11:39:15;;;;;;;6.10;2.83;;;;;;;;;;5339099;27;20046;-81
2022/06/21 11:42:06;;;;;;;5.20;2.87;;;;;;;;;;5324024;28;20025;-81
2022/06/21 11:44:58;;;;;;;6.63;2.90;;;;;;;;;;5309296;27;20051;-81
2022/06/21 11:47:41;;;;;;;6.50;3.05;;;;;;;;;;5323392;27;20392;-80
2022/06/21 11:50:21;;;;;;;4.78;3.17;;;;;;;;;;5301542;28;20661;-81
2022/06/21 11:53:05;;;;;;;4.82;2.70;;;;;;;;;;5285734;27;20481;-81
2022/06/21 11:55:42;;;;;;;4.68;2.50;;;;;;;;;;5316386;27;20026;-80
2022/06/21 11:58:31;;;;;;;5.15;2.25;;;;;;;;;;5336717;27;20555;-80
2022/06/21 12:01:11;;;;;;;4.43;2.92;;;;;;;;;;5326915;27;20402;-81
2022/06/21 12:03:46;;;;;;;5.05;2.53;;;;;;;;;;5307886;28;20036;-80
2022/06/21 12:06:43;;;;;;;4.20;2.40;;;;;;;;;;5327102;28;20032;-81
2022/06/21 12:09:27;;;;;;;4.78;2.75;;;;;;;;;;5286563;28;20302;-81
2022/06/21 12:12:17;;;;;;;8.95;2.20;;;;;;;;;;5319317;27;20107;-81
2022/06/21 12:15:00;;;;;;;4.57;1.95;;;;;;;;;;5343038;27;20495;-81
2022/06/21 12:17:50;;;;;;;6.30;2.50;;;;;;;;;;5342151;27;20020;-81
2022/06/21 12:20:25;;;;;;;4.15;2.33;;;;;;;;;;5326671;28;20102;-82
2022/06/21 12:23:02;;;;;;;7.53;2.50;;;;;;;;;;5306043;27;20089;-81
2022/06/21 12:25:33;;;;;;;6.78;2.60;;;;;;;;;;5320103;27;20047;-82
2022/06/21 12:28:11;;;;;;;5.23;2.70;;;;;;;;;;5332349;27;20032;-81
2022/06/21 12:30:42;;;;;;;6.93;2.30;;;;;;;;;;5326614;28;20273;-81
2022/06/21 12:33:15;;;;;;;4.95;2.58;;;;;;;;;;5343204;27;20024;-81
2022/06/21 12:35:52;;;;;;;8.27;2.58;;;;;;;;;;5323694;27;20381;-81
2022/06/21 12:38:30;;;;;;;3.63;2.20;;;;;;;;;;5325856;27;20035;-81
2022/06/21 12:41:04;;;;;;;4.20;1.70;;;;;;;;;;5308041;28;20484;-81
2022/06/21 12:43:49;;;;;;;3.35;1.92;;;;;;;;;;5321558;27;20032;-81
2022/06/21 12:46:38;;;;;;;4.50;1.87;;;;;;;;;;5286159;28;20040;-82
2022/06/21 12:49:13;;;;;;;4.53;2.25;;;;;;;;;;5302045;28;20287;-82
2022/06/21 12:51:51;;;;;;;3.88;2.00;;;;;;;;;;5320765;27;20044;-82
2022/06/21 12:54:34;;;;;;;5.85;2.30;;;;;;;;;;5293209;27;20031;-81
2022/06/21 12:57:15;;;;;;;5.85;2.28;;;;;;;;;;5337304;27;20024;-81
2022/06/21 12:59:55;;;;;;;4.97;2.50;;;;;;;;;;5342573;27;20119;-80
2022/06/21 13:02:36;;;;;;;4.43;2.28;;;;;;;;;;5341303;27;20024;-81
2022/06/21 13:05:26;;;;;;;5.35;2.45;;;;;;;;;;5341678;27;20058;-81
2022/06/21 13:08:06;;;;;;;6.28;2.10;;;;;;;;;;5320298;28;20047;-82
2022/06/21 13:10:40;;;;;;;3.67;1.60;;;;;;;;;;5305468;28;20318;-81
2022/06/21 13:13:15;;;;;;;5.60;2.15;;;;;;;;;;5321528;27;20132;-80
2022/06/21 13:16:05;;;;;;;5.88;1.98;;;;;;;;;;5304953;28;20033;-81
2022/06/21 13:18:43;;;;;;;4.93;1.75;;;;;;;;;;5340564;27;20044;-81
2022/06/21 13:21:30;;;;;;;4.18;1.55;;;;;;;;;;5306868;28;20126;-81
2022/06/21 13:24:10;;;;;;;5.38;2.38;;;;;;;;;;5341851;27;20039;-82
2022/06/21 13:27:06;;;;;;;4.55;2.22;;;;;;;;;;5321549;27;20519;-82
2022/06/21 13:30:00;;;;;;;7.28;2.55;;;;;;;;;;5311198;27;20071;-81
2022/06/21 13:32:33;;;;;;;5.50;1.70;;;;;;;;;;5302875;28;20120;-81
2022/06/21 13:35:15;;;;;;;6.32;1.63;;;;;;;;;;5308383;28;20031;-82
2022/06/21 13:37:48;;;;;;;5.53;1.67;;;;;;;;;;5306976;28;20110;-81
2022/06/21 13:40:23;;;;;;;4.13;1.85;;;;;;;;;;5342771;27;20024;-81
2022/06/21 13:42:57;;;;;;;6.13;1.93;;;;;;;;;;5293895;27;20044;-82
2022/06/21 13:45:35;;;;;;;4.28;1.92;;;;;;;;;;5336445;27;20024;-81
2022/06/21 13:48:14;;;;;;;4.40;1.52;;;;;;;;;;5302559;28;20573;-82
2022/06/21 13:50:52;;;;;;;4.45;1.52;;;;;;;;;;5290210;28;20028;-82
2022/06/21 13:53:42;;;;;;;3.45;1.73;;;;;;;;;;5324289;28;20042;-81
2022/06/21 13:56:23;;;;;;;3.60;1.67;;;;;;;;;;5319815;28;20021;-81
2022/06/21 13:58:57;;;;;;;6.63;1.63;;;;;;;;;;5306743;28;20116;-82
2022/06/21 14:01:38;;;;;;;5.57;1.30;;;;;;;;;;5302602;28;20220;-82
2022/06/21 14:04:18;;;;;;;3.33;1.17;;;;;;;;;;5322947;28;20073;-81
2022/06/21 14:06:54;;;;;;;7.60;1.30;;;;;;;;;;5322523;28;20141;-81
2022/06/21 14:09:35;;;;;;;4.10;1.42;;;;;;;;;;5308052;28;20362;-81
2022/06/21 14:12:20;;;;;;;4.22;1.20;;;;;;;;;;5330287;27;20016;-80
2022/06/21 14:14:51;;;;;;;6.40;1.42;;;;;;;;;;5291560;28;20445;-80
2022/06/21 14:17:30;;;;;;;4.10;1.23;;;;;;;;;;5311315;28;20027;-81
2022/06/21 14:20:24;;;;;;;3.10;1.08;;;;;;;;;;5330299;27;20025;-81
2022/06/21 14:23:11;;;;;;;10.07;1.60;;;;;;;;;;5303178;28;20032;-81
2022/06/21 14:25:48;;;;;;;3.25;0.90;;;;;;;;;;5305100;28;20044;-82
2022/06/21 14:28:26;;;;;;;5.80;1.20;;;;;;;;;;5326791;28;20063;-81
2022/06/21 14:31:02;;;;;;;6.28;1.27;;;;;;;;;;5325963;27;20375;-81
2022/06/21 14:33:43;;;;;;;7.38;2.03;;;;;;;;;;5297968;28;20353;-81
2022/06/21 14:36:27;;;;;;;5.13;1.55;;;;;;;;;;5298682;28;20032;-81
2022/06/21 14:39:09;;;;;;;4.85;1.17;;;;;;;;;;5306758;28;20038;-81
2022/06/21 14:41:43;;;;;;;4.30;1.20;;;;;;;;;;5306702;28;20035;-82
2022/06/21 14:44:17;;;;;;;3.17;1.15;;;;;;;;;;5306092;27;20243;-81
2022/06/21 14:47:21;;;;;;;3.20;1.27;;;;;;;;;;5321915;27;20059;-81
2022/06/21 14:50:11;;;;;;;3.15;1.50;;;;;;;;;;5283693;28;20066;-80
2022/06/21 14:53:03;;;;;;;6.60;1.30;;;;;;;;;;5324961;28;20172;-82
2022/06/21 14:55:53;;;;;;;9.88;2.13;;;;;;;;;;5298403;28;20523;-81
2022/06/21 14:58:39;;;;;;;8.98;1.20;;;;;;;;;;5312814;27;20060;-82
2022/06/21 15:01:16;;;;;;;2.17;1.10;;;;;;;;;;5320084;27;20035;-82
2022/06/21 15:03:52;;;;;;;4.00;1.33;;;;;;;;;;5322298;27;20083;-81
2022/06/21 15:06:28;;;;;;;3.30;1.33;;;;;;;;;;5292130;28;20369;-81
2022/06/21 15:09:02;;;;;;;5.05;1.83;;;;;;;;;;5346932;27;20043;-81
2022/06/21 15:11:56;;;;;;;6.10;1.60;;;;;;;;;;5297125;28;20671;-80
2022/06/21 15:14:33;;;;;;;3.78;1.52;;;;;;;;;;5313619;27;20452;-79
2022/06/21 15:17:04;;;;;;;6.53;1.55;;;;;;;;;;5325268;27;20024;-81
2022/06/21 15:19:53;;;;;;;5.10;1.80;;;;;;;;;;5330648;27;20025;-80
2022/06/21 15:22:43;;;;;;;5.22;1.30;;;;;;;;;;5292329;27;20024;-81
2022/06/21 15:25:20;;;;;;;4.45;1.48;;;;;;;;;;5315947;27;20105;-81
2022/06/21 15:27:56;;;;;;;4.78;1.50;;;;;;;;;;5325599;27;20060;-81
2022/06/21 15:30:30;;;;;;;3.17;1.38;;;;;;;;;;5325860;27;20415;-81
2022/06/21 15:33:03;;;;;;;7.88;1.70;;;;;;;;;;5325513;27;20389;-81
2022/06/21 15:35:46;;;;;;;8.80;2.25;;;;;;;;;;5309871;28;20022;-81
2022/06/21 15:38:18;;;;;;;11.07;1.85;;;;;;;;;;5328386;27;20032;-80
2022/06/21 15:40:53;;;;;;;3.97;2.30;;;;;;;;;;5309103;28;20129;-80
2022/06/21 15:43:32;;;;;;;6.10;2.20;;;;;;;;;;5309128;28;20180;-81
2022/06/21 15:46:09;;;;;;;7.22;1.60;;;;;;;;;;5299211;28;20020;-81
2022/06/21 15:51:46;;;;;;;3.42;1.20;;;;;;;;;;5325430;28;20036;-80
2022/06/21 15:54:20;;;;;;;5.20;1.50;;;;;;;;;;5327449;27;20028;-81
2022/06/21 15:57:11;;;;;;;5.05;1.90;;;;;;;;;;5330021;27;20130;-81
2022/06/21 15:59:47;;;;;;;4.43;1.77;;;;;;;;;;5326492;27;20385;-81
2022/06/21 16:02:24;;;;;;;12.85;2.47;;;;;;;;;;5306606;28;20024;-81
2022/06/21 16:04:56;;;;;;;8.93;1.98;;;;;;;;;;5322692;27;20107;-81